Richmond Heights, Missouri
Current Conditions -  °F | °C
As of 8:51 PM on Friday 28 Nov 2014 (Local Time) from KSTL Reporting Station
Scattered Clouds Scattered Clouds  
Wind Chill: 40°   Ceiling: Unl
Heat Index: 45°   Visibility: 10mi
Dew Point: 33°   Wind: 10mph
Humidity: 63%   Direction: 170°S
Pressure: 29.91"   Gusts: NA
Location:  38.63°N, 90.32°W
Report Text: KSTL 290251Z 17009KT 10SM FEW150 SCT250 07/01 A2991 RMK AO2 SLP135 T00720006 56012
Loading
Personal Weather Stations






























Interactive Weather Map New forecast layout! Learn more

10-Day Weather Forecast

Advertisements
Track Severe Weather on mobile